< < Back
Terminal Aerodrome Forecast


Current Version              Previous Versions:   1  2  3  4  5  6  7  8  9  

Terminal Aerodrome Forecast

882
FTUS42 KMLB 201700 RRA
TAFDAB
TAF
KDAB 201745Z 2018/2112 22005KT P6SM SCT030 SCT050 BKN110
     FM202000 06006KT P6SM BKN080 OVC120
     FM210600 VRB03KT 5SM BR BKN025 OVC060=

Latest METAR

187
SAUS80 KWBC 202300 RRC
MTRDAB
METAR KDAB 202253Z 02006KT 10SM FEW035 SCT090 SCT110 BKN250 19/17 A3008
RMK AO2 RAB31E44 SLP186 P0000 T01940167


USA.gov is the U.S. government's official web portal to all federal, state and local government web resources and services.